Saturday, September 20, 2014, 10:00 AM EDT

KSEG, Selinsgrove Penn Valley Airport

Location: Selinsgrove, PA, United States Lat: 40.817
Local Time: 10:00 AM EDT (14:00 GMT) Lon: -76.867
Time Zone: US/Eastern Elev: 449 ft

Show me the last for .
Show Decoded

2014-09-20 09:02 METAR KSEG 201302Z AUTO VRB06KT 6SM HZ BKN027 OVC060 18/14 A3025 RMK AO2
                 T01780144 =
2014-09-20 08:53 METAR KSEG 201253Z AUTO VRB06KT 6SM HZ SCT029 OVC060 18/14 A3025 RMK AO2 SLP242
                 T01780144 =
2014-09-20 07:53 METAR KSEG 201153Z AUTO 17005KT 6SM HZ BKN030 OVC060 17/14 A3024 RMK AO2 SLP240
                 T01720139 10172 20161 56003 =
2014-09-20 07:10 METAR KSEG 201110Z AUTO 17008KT 6SM HZ SCT017 BKN033 OVC060 17/14 A3024 RMK AO2
                 T01720139 =
2014-09-20 06:53 METAR KSEG 201053Z AUTO 17007KT 7SM BKN018 OVC035 17/14 A3025 RMK AO2 SLP241
                 T01720139 =
2014-09-20 05:53 METAR KSEG 200953Z AUTO 18004KT 7SM OVC015 17/13 A3025 RMK AO2 SLP241 T01670133
                 =
2014-09-20 04:53 METAR KSEG 200853Z AUTO VRB05KT 7SM OVC016 17/13 A3025 RMK AO2 SLP243 T01670133
                 56010 =
2014-09-20 03:53 METAR KSEG 200753Z AUTO 18005KT 7SM OVC017 16/13 A3026 RMK AO2 SLP244 T01610128
                 =
2014-09-20 02:53 METAR KSEG 200653Z AUTO 17008KT 8SM OVC018 16/13 A3027 RMK AO2 SLP250 T01610128
                 =
2014-09-20 01:53 METAR KSEG 200553Z AUTO 18006KT 8SM OVC019 16/12 A3028 RMK AO2 SLP253 T01610122
                 10172 20161 56001 =
2014-09-20 00:53 METAR KSEG 200453Z AUTO 17004KT 9SM OVC021 17/12 A3029 RMK AO2 SLP255 T01670122
                 402220067 =
2014-09-19 23:53 METAR KSEG 200353Z AUTO VRB06G18KT 9SM OVC024 17/12 A3027 RMK AO2 SLP250
                 T01670117 =
2014-09-19 23:27 METAR KSEG 200327Z AUTO 15007KT 10SM BKN024 BKN034 17/12 A3028 RMK AO2 T01670117
                 =
2014-09-19 22:53 METAR KSEG 200253Z AUTO 16010KT 10SM OVC034 17/12 A3028 RMK AO2 SLP255 T01670117
                 53001 =
2014-09-19 21:53 METAR KSEG 200153Z AUTO 16007KT 140V200 10SM SCT075 17/11 A3028 RMK AO2 SLP253
                 T01720111 =
2014-09-19 20:53 METAR KSEG 200053Z AUTO 15007KT 10SM BKN070 17/11 A3028 RMK AO2 SLP252 T01720111
                 =
2014-09-19 19:53 METAR KSEG 192353Z AUTO 14004KT 10SM FEW050 BKN070 17/11 A3028 RMK AO2 SLP253
                 T01720111 10222 20172 53008 =
2014-09-19 18:53 METAR KSEG 192253Z AUTO 16005KT 10SM BKN055 BKN075 18/11 A3026 RMK AO2 SLP248
                 T01780111 =
2014-09-19 17:53 METAR KSEG 192153Z AUTO 14007KT 10SM BKN050 OVC055 20/11 A3025 RMK AO2 SLP244
                 T02000106 =
2014-09-19 16:53 METAR KSEG 192053Z AUTO 15005KT 10SM SCT055 21/10 A3026 RMK AO2 SLP245 T02060100
                 57014 =
2014-09-19 15:53 METAR KSEG 191953Z AUTO 00000KT 10SM CLR 22/10 A3027 RMK AO2 SLP249 T02170100 =
2014-09-19 14:53 METAR KSEG 191853Z AUTO VRB03KT 10SM FEW045 21/10 A3029 RMK AO2 SLP255 T02110100
                 =
2014-09-19 13:53 METAR KSEG 191753Z AUTO VRB03KT 10SM CLR 21/09 A3030 RMK AO2 SLP258 T02060094
                 10206 20100 58009 =
2014-09-19 12:53 METAR KSEG 191653Z AUTO 00000KT 10SM CLR 19/09 A3031 RMK AO2 SLP263 T01890089 =
2014-09-19 11:53 METAR KSEG 191553Z AUTO VRB04KT 10SM CLR 17/07 A3031 RMK AO2 SLP265 T01720072 =
2014-09-19 10:53 METAR KSEG 191453Z AUTO VRB04KT 10SM CLR 16/08 A3032 RMK AO2 SLP268 T01560078
                 51007 =

Support USWX by starting your Amazon purchase here.